Time;durP1;ratioP1;P1;durP2;ratioP2;P2;SDS_P1;SDS_P2;PMS_P1;PMS_P2;Temp;Humidity;BMP_temperature;BMP_pressure;BME280_temperature;BME280_humidity;BME280_pressure;Samples;Min_cycle;Max_cycle;Signal;HPM_P1;HPM_P2
2021/07/04 00:01:15;;;;;;;11.87;10.77;;;18.40;99.90;;;;;;5047091;28;20194;-38
2021/07/04 00:03:40;;;;;;;14.03;11.17;;;18.50;99.90;;;;;;5046767;28;20424;-38
2021/07/04 00:06:06;;;;;;;12.73;11.43;;;18.40;99.90;;;;;;5037392;28;20455;-38
2021/07/04 00:08:32;;;;;;;12.47;10.27;;;18.40;99.90;;;;;;5046651;28;20609;-38
2021/07/04 00:11:01;;;;;;;11.97;10.77;;;18.50;99.90;;;;;;5046846;28;20243;-37
2021/07/04 00:13:30;;;;;;;12.20;11.00;;;18.40;99.90;;;;;;5044832;28;20193;-38
2021/07/04 00:15:56;;;;;;;15.07;11.33;;;18.50;99.90;;;;;;5046945;28;20955;-38
2021/07/04 00:18:24;;;;;;;12.53;11.23;;;18.50;99.90;;;;;;5047060;28;20471;-38
2021/07/04 00:20:52;;;;;;;13.60;12.30;;;18.50;99.90;;;;;;5037329;28;20437;-38
2021/07/04 00:23:18;;;;;;;13.47;12.20;;;18.50;99.90;;;;;;5040728;28;20468;-38
2021/07/04 00:25:46;;;;;;;15.60;14.00;;;18.40;99.90;;;;;;5046550;28;20424;-38
2021/07/04 00:28:12;;;;;;;17.60;15.90;;;18.40;99.90;;;;;;5045210;28;20436;-38
2021/07/04 00:30:39;;;;;;;20.77;18.77;;;18.40;99.90;;;;;;5046499;28;20439;-37
2021/07/04 00:33:05;;;;;;;23.37;21.17;;;18.30;99.90;;;;;;5045724;28;20444;-38
2021/07/04 00:35:32;;;;;;;15.87;14.27;;;18.30;99.90;;;;;;5039146;28;20858;-37
2021/07/04 00:37:58;;;;;;;15.27;12.80;;;18.20;99.90;;;;;;5041940;28;20447;-38
2021/07/04 00:40:24;;;;;;;14.60;13.13;;;18.30;99.90;;;;;;5047004;28;20815;-37
2021/07/04 00:42:50;;;;;;;15.27;12.93;;;18.20;99.90;;;;;;5045559;28;20416;-38
2021/07/04 00:45:22;;;;;;;16.80;15.23;;;18.30;99.90;;;;;;5046444;28;20461;-38
2021/07/04 00:47:49;;;;;;;14.80;13.30;;;18.40;99.90;;;;;;5046679;28;20198;-38
2021/07/04 00:50:16;;;;;;;14.63;12.87;;;18.40;99.90;;;;;;5040344;28;20458;-37
2021/07/04 00:52:43;;;;;;;15.17;13.63;;;18.30;99.90;;;;;;5043824;28;20474;-37
2021/07/04 00:55:13;;;;;;;14.03;12.50;;;18.30;99.90;;;;;;5045427;28;20430;-38
2021/07/04 00:57:39;;;;;;;14.57;13.07;;;18.30;99.90;;;;;;5046007;28;20784;-38
2021/07/04 01:00:08;;;;;;;14.57;13.17;;;18.40;99.90;;;;;;5045921;28;20464;-38
2021/07/04 01:02:34;;;;;;;15.07;13.67;;;18.30;99.90;;;;;;5046478;28;20465;-37
2021/07/04 01:05:00;;;;;;;14.03;12.73;;;18.30;99.90;;;;;;5043088;28;20515;-37
2021/07/04 01:07:26;;;;;;;15.17;13.77;;;18.30;99.90;;;;;;5036688;28;20197;-38
2021/07/04 01:09:53;;;;;;;14.70;13.20;;;18.30;99.90;;;;;;5045505;28;20431;-38
2021/07/04 01:12:19;;;;;;;13.17;11.97;;;18.30;99.90;;;;;;5044912;28;20456;-38
2021/07/04 01:14:45;;;;;;;13.50;12.20;;;18.30;99.90;;;;;;5045279;28;20479;-37
2021/07/04 01:17:11;;;;;;;13.07;11.87;;;18.30;99.90;;;;;;5046133;28;20194;-37
2021/07/04 01:19:37;;;;;;;13.60;12.30;;;18.40;99.90;;;;;;5045862;28;21020;-38
2021/07/04 01:22:03;;;;;;;14.40;12.70;;;18.30;99.90;;;;;;5036224;28;20252;-38
2021/07/04 01:24:29;;;;;;;13.50;12.30;;;18.30;99.90;;;;;;5044932;28;20417;-38
2021/07/04 01:26:55;;;;;;;15.10;13.60;;;18.30;99.90;;;;;;5046188;28;20777;-37
2021/07/04 01:29:21;;;;;;;15.30;13.73;;;18.20;99.90;;;;;;5046050;28;20284;-38
2021/07/04 01:31:47;;;;;;;14.03;12.73;;;18.20;99.90;;;;;;5045728;28;20298;-38
2021/07/04 01:34:13;;;;;;;14.10;12.83;;;18.20;99.90;;;;;;5045579;28;20433;-37
2021/07/04 01:36:40;;;;;;;14.67;13.13;;;18.20;99.90;;;;;;5034698;28;20433;-37
2021/07/04 01:39:06;;;;;;;13.87;12.57;;;18.20;99.90;;;;;;5045554;28;20206;-37
2021/07/04 01:41:34;;;;;;;13.90;12.53;;;18.20;99.90;;;;;;5045659;28;20438;-38
2021/07/04 01:44:00;;;;;;;14.03;12.67;;;18.20;99.90;;;;;;5045517;28;20431;-38
2021/07/04 01:46:26;;;;;;;14.37;13.07;;;18.20;99.90;;;;;;5045998;28;21157;-37
2021/07/04 01:48:51;;;;;;;16.37;14.60;;;18.20;99.90;;;;;;5046311;28;20431;-38
2021/07/04 01:51:18;;;;;;;13.90;12.60;;;18.20;99.90;;;;;;5037685;28;20194;-37
2021/07/04 01:53:43;;;;;;;16.57;14.90;;;18.20;99.90;;;;;;5042997;28;20240;-38
2021/07/04 01:56:09;;;;;;;13.77;12.47;;;18.20;99.90;;;;;;5045571;28;20472;-38
2021/07/04 01:58:36;;;;;;;16.77;13.70;;;18.10;99.90;;;;;;5045880;28;20209;-38
2021/07/04 02:01:05;;;;;;;15.00;13.60;;;18.10;99.90;;;;;;5044052;28;20459;-38
2021/07/04 02:03:31;;;;;;;14.90;13.50;;;18.10;99.90;;;;;;5047306;28;20432;-38
2021/07/04 02:05:57;;;;;;;14.43;13.13;;;18.10;99.90;;;;;;5042845;28;20442;-38
2021/07/04 02:08:23;;;;;;;14.30;12.90;;;18.10;99.90;;;;;;5044453;28;20302;-37
2021/07/04 02:10:49;;;;;;;16.43;13.63;;;18.20;99.90;;;;;;5049202;28;20431;-38
2021/07/04 02:13:14;;;;;;;13.13;12.00;;;18.20;99.90;;;;;;5046956;28;20625;-38
2021/07/04 02:15:40;;;;;;;15.60;14.00;;;18.20;99.90;;;;;;5049081;28;20186;-37
2021/07/04 02:18:09;;;;;;;15.93;14.50;;;18.10;99.90;;;;;;5049343;28;20205;-37
2021/07/04 02:20:41;;;;;;;16.63;15.07;;;18.10;99.90;;;;;;5047143;28;20427;-37
2021/07/04 02:23:19;;;;;;;15.10;13.60;;;18.10;99.90;;;;;;5041545;28;20606;-38
2021/07/04 02:25:46;;;;;;;15.00;13.60;;;18.10;99.90;;;;;;5047769;28;20841;-37
2021/07/04 02:28:14;;;;;;;15.57;13.93;;;18.10;99.90;;;;;;5049201;28;20518;-38
2021/07/04 02:30:41;;;;;;;16.00;14.33;;;18.00;99.90;;;;;;5049347;28;20434;-37
2021/07/04 02:33:09;;;;;;;15.27;13.97;;;18.10;99.90;;;;;;5047962;28;20438;-38
2021/07/04 02:35:37;;;;;;;15.80;14.30;;;18.10;99.90;;;;;;5047027;28;20809;-38
2021/07/04 02:38:04;;;;;;;15.27;13.87;;;18.10;99.90;;;;;;5041954;28;20891;-37
2021/07/04 02:40:30;;;;;;;16.87;15.13;;;18.10;99.90;;;;;;5048815;28;20514;-38
2021/07/04 02:42:56;;;;;;;15.97;14.37;;;18.10;99.90;;;;;;5046967;28;20467;-38
2021/07/04 02:45:22;;;;;;;16.97;15.30;;;18.10;99.90;;;;;;5047567;28;20421;-38
2021/07/04 02:47:48;;;;;;;16.53;14.93;;;18.00;99.90;;;;;;5048317;28;20431;-38
2021/07/04 02:50:14;;;;;;;16.97;15.37;;;18.10;99.90;;;;;;5047284;28;20449;-38
2021/07/04 02:52:40;;;;;;;15.57;14.20;;;18.10;99.90;;;;;;5030743;28;20194;-38
2021/07/04 02:55:08;;;;;;;17.13;15.53;;;18.10;99.90;;;;;;5047757;28;20474;-38
2021/07/04 02:57:34;;;;;;;16.17;14.70;;;18.10;99.90;;;;;;5048716;28;20189;-37
2021/07/04 03:00:00;;;;;;;16.90;15.20;;;18.10;99.90;;;;;;5046836;28;20985;-38
2021/07/04 03:02:26;;;;;;;17.40;15.57;;;18.10;99.90;;;;;;5046622;28;20428;-38
2021/07/04 03:04:52;;;;;;;14.90;13.60;;;18.10;99.90;;;;;;5047539;28;20705;-38
2021/07/04 03:07:19;;;;;;;15.50;13.90;;;18.20;99.90;;;;;;5035505;28;20524;-37
2021/07/04 03:09:44;;;;;;;18.30;16.40;;;18.20;99.90;;;;;;5047876;28;20205;-38
2021/07/04 03:12:10;;;;;;;15.63;14.13;;;18.20;99.90;;;;;;5046989;28;20463;-38
2021/07/04 03:14:37;;;;;;;16.07;14.57;;;18.20;99.90;;;;;;5046499;28;20217;-37
2021/07/04 03:17:03;;;;;;;15.63;13.93;;;18.20;99.90;;;;;;5047595;28;20742;-38
2021/07/04 03:19:30;;;;;;;16.67;15.17;;;18.20;99.90;;;;;;5047849;28;20495;-38
2021/07/04 03:21:56;;;;;;;15.70;14.20;;;18.20;99.90;;;;;;5039659;28;20801;-38
2021/07/04 03:24:21;;;;;;;17.03;15.43;;;18.20;99.90;;;;;;5042701;28;20432;-38
2021/07/04 03:26:47;;;;;;;15.33;13.73;;;18.20;99.90;;;;;;5048252;28;20186;-37
2021/07/04 03:29:13;;;;;;;17.07;15.30;;;18.20;99.90;;;;;;5047832;28;20190;-37
2021/07/04 03:31:39;;;;;;;18.00;16.30;;;18.10;99.90;;;;;;5047215;28;20439;-38
2021/07/04 03:34:05;;;;;;;16.87;15.37;;;18.10;99.90;;;;;;5045811;28;20197;-38
2021/07/04 03:36:30;;;;;;;16.93;15.33;;;18.00;99.90;;;;;;5040189;28;20329;-38
2021/07/04 03:38:56;;;;;;;17.17;15.47;;;18.00;99.90;;;;;;5042695;28;20727;-38
2021/07/04 03:41:22;;;;;;;16.37;14.97;;;18.00;99.90;;;;;;5047271;28;20235;-38
2021/07/04 03:43:48;;;;;;;17.93;15.80;;;18.00;99.90;;;;;;5047165;28;20893;-38
2021/07/04 03:46:14;;;;;;;17.90;16.20;;;17.90;99.90;;;;;;5047083;28;20211;-38
2021/07/04 03:48:40;;;;;;;18.70;16.90;;;17.90;99.90;;;;;;5047729;28;20216;-38
2021/07/04 03:51:05;;;;;;;18.50;16.70;;;17.90;99.90;;;;;;5044651;28;20981;-38
2021/07/04 03:53:31;;;;;;;18.73;16.17;;;17.90;99.90;;;;;;5041480;28;20186;-37
2021/07/04 03:55:57;;;;;;;17.50;15.83;;;17.90;99.90;;;;;;5047121;28;20549;-38
2021/07/04 03:58:23;;;;;;;19.60;16.40;;;17.90;99.90;;;;;;5046080;28;20206;-38
2021/07/04 04:00:49;;;;;;;19.30;17.43;;;17.90;99.90;;;;;;5046870;28;20194;-38
2021/07/04 04:03:14;;;;;;;18.60;16.80;;;17.90;99.90;;;;;;5046661;28;20423;-37
2021/07/04 04:05:40;;;;;;;18.03;15.77;;;17.90;99.90;;;;;;5047185;28;20186;-37
2021/07/04 04:08:07;;;;;;;19.17;17.37;;;17.90;99.90;;;;;;5036947;28;20236;-38
2021/07/04 04:10:34;;;;;;;19.80;17.90;;;17.90;99.90;;;;;;5047076;28;20184;-37
2021/07/04 04:13:01;;;;;;;19.43;17.67;;;17.90;99.90;;;;;;5045244;28;20423;-38
2021/07/04 04:15:26;;;;;;;19.40;17.60;;;17.90;99.90;;;;;;5046587;28;20412;-38
2021/07/04 04:17:54;;;;;;;19.90;17.90;;;17.90;99.90;;;;;;5047000;28;20783;-38
2021/07/04 04:20:19;;;;;;;20.50;18.60;;;17.90;99.90;;;;;;5046695;28;20220;-38
2021/07/04 04:22:45;;;;;;;19.27;17.47;;;17.90;99.90;;;;;;5035196;28;20441;-38
2021/07/04 04:25:11;;;;;;;17.87;16.17;;;17.90;99.90;;;;;;5046165;28;20637;-37
2021/07/04 04:27:37;;;;;;;18.53;16.80;;;17.80;99.90;;;;;;5037169;28;20562;-38
2021/07/04 04:30:04;;;;;;;18.13;16.30;;;17.80;99.90;;;;;;5040502;28;20930;-37
2021/07/04 04:32:30;;;;;;;19.37;17.50;;;17.80;99.90;;;;;;5046592;28;20185;-37
2021/07/04 04:34:56;;;;;;;19.23;17.43;;;17.80;99.90;;;;;;5046086;28;20478;-38
2021/07/04 04:37:21;;;;;;;21.70;16.40;;;17.80;99.90;;;;;;5037487;28;20680;-38
2021/07/04 04:39:47;;;;;;;19.30;17.47;;;17.80;99.90;;;;;;5045361;28;20217;-38
2021/07/04 04:42:13;;;;;;;17.70;16.10;;;17.80;99.90;;;;;;5046757;28;20224;-38
2021/07/04 04:44:38;;;;;;;17.27;15.60;;;17.90;99.90;;;;;;5045428;28;20566;-37
2021/07/04 04:47:06;;;;;;;19.77;17.80;;;17.80;99.90;;;;;;5046847;28;20243;-38
2021/07/04 04:49:32;;;;;;;17.97;16.37;;;17.90;99.90;;;;;;5046440;28;20214;-38
2021/07/04 04:51:58;;;;;;;18.00;16.37;;;17.90;99.90;;;;;;5041732;28;20844;-38
2021/07/04 04:54:23;;;;;;;17.47;15.77;;;18.00;99.90;;;;;;5047999;28;20458;-37
2021/07/04 04:56:49;;;;;;;17.33;15.83;;;18.00;99.90;;;;;;5044840;28;20218;-38
2021/07/04 04:59:15;;;;;;;17.97;16.03;;;18.00;99.90;;;;;;5045531;28;20287;-38
2021/07/04 05:01:40;;;;;;;18.40;16.70;;;18.10;99.90;;;;;;5045069;28;20189;-38
2021/07/04 05:04:07;;;;;;;18.83;17.00;;;18.00;99.90;;;;;;5045336;28;20185;-37
2021/07/04 05:06:33;;;;;;;20.30;18.40;;;18.10;99.90;;;;;;5025111;28;20265;-38
2021/07/04 05:08:58;;;;;;;19.73;17.70;;;18.10;99.90;;;;;;5041404;28;20997;-38
2021/07/04 05:11:24;;;;;;;20.40;17.67;;;18.10;99.90;;;;;;5043789;28;20432;-38
2021/07/04 05:13:49;;;;;;;20.10;18.10;;;18.20;99.90;;;;;;5045001;28;20243;-38
2021/07/04 05:16:15;;;;;;;18.50;16.60;;;18.20;99.90;;;;;;5046023;28;20185;-38
2021/07/04 05:18:41;;;;;;;19.30;17.50;;;18.30;99.90;;;;;;5045998;28;20676;-38
2021/07/04 05:21:07;;;;;;;17.63;16.13;;;18.30;99.90;;;;;;5053472;28;20609;-38
2021/07/04 05:23:32;;;;;;;17.93;16.33;;;18.30;99.90;;;;;;5035900;28;20205;-38
2021/07/04 05:25:58;;;;;;;18.40;16.70;;;18.40;99.90;;;;;;5045665;28;20189;-37
2021/07/04 05:28:25;;;;;;;18.27;16.63;;;18.40;99.90;;;;;;5045556;28;20225;-38
2021/07/04 05:30:51;;;;;;;16.37;14.90;;;18.40;99.90;;;;;;5045776;28;20423;-37
2021/07/04 05:33:17;;;;;;;18.33;16.70;;;18.40;99.90;;;;;;5045296;28;20830;-38
2021/07/04 05:35:43;;;;;;;18.90;17.20;;;18.50;99.90;;;;;;5045873;28;20190;-38
2021/07/04 05:38:17;;;;;;;18.30;16.60;;;18.50;99.90;;;;;;5039883;28;20421;-38
2021/07/04 05:40:43;;;;;;;16.90;15.40;;;18.50;99.90;;;;;;5049433;28;20423;-38
2021/07/04 05:43:09;;;;;;;18.33;16.67;;;18.50;99.90;;;;;;5049426;28;20915;-37
2021/07/04 05:45:35;;;;;;;17.47;16.00;;;18.60;99.90;;;;;;5049658;28;20427;-38
2021/07/04 05:48:01;;;;;;;18.13;16.53;;;18.60;99.90;;;;;;5048421;28;20234;-38
2021/07/04 05:50:27;;;;;;;19.60;17.90;;;18.60;99.90;;;;;;5049337;28;20436;-38
2021/07/04 05:52:52;;;;;;;18.23;16.47;;;18.70;99.90;;;;;;5040250;28;20729;-38
2021/07/04 05:55:18;;;;;;;19.30;17.30;;;18.70;99.90;;;;;;5044091;28;20204;-38
2021/07/04 05:57:44;;;;;;;19.43;17.70;;;18.70;99.90;;;;;;5049384;28;20654;-38
2021/07/04 06:00:10;;;;;;;19.43;17.73;;;18.80;99.90;;;;;;5049513;28;20606;-38
2021/07/04 06:02:36;;;;;;;24.93;18.90;;;18.80;99.90;;;;;;5049304;28;20198;-38
2021/07/04 06:05:02;;;;;;;18.47;16.70;;;18.80;99.90;;;;;;5048749;28;20451;-37
2021/07/04 06:07:28;;;;;;;18.97;17.27;;;18.80;99.90;;;;;;5045107;28;20570;-38
2021/07/04 06:09:53;;;;;;;19.20;17.47;;;18.80;99.90;;;;;;5043397;28;20424;-38
2021/07/04 06:12:19;;;;;;;18.90;17.00;;;18.80;99.90;;;;;;5046806;28;20219;-37
2021/07/04 06:14:45;;;;;;;17.87;16.27;;;18.90;99.90;;;;;;5048793;28;20192;-37
2021/07/04 06:17:10;;;;;;;18.63;16.67;;;18.90;99.90;;;;;;5047524;28;20233;-38
2021/07/04 06:19:36;;;;;;;18.20;16.50;;;18.90;99.90;;;;;;5048238;28;20222;-38
2021/07/04 06:22:03;;;;;;;19.20;17.30;;;19.10;99.90;;;;;;5047293;28;20193;-38
2021/07/04 06:24:29;;;;;;;17.30;15.70;;;19.30;99.90;;;;;;5042091;28;20194;-38
2021/07/04 06:26:54;;;;;;;16.63;15.10;;;19.50;99.90;;;;;;5048832;28;20922;-38
2021/07/04 06:29:20;;;;;;;15.37;13.90;;;19.70;99.90;;;;;;5047886;28;20193;-38
2021/07/04 06:31:46;;;;;;;16.90;15.30;;;19.90;99.90;;;;;;5048879;28;20722;-38
2021/07/04 06:34:12;;;;;;;15.00;13.50;;;20.00;99.90;;;;;;5048485;28;20197;-37
2021/07/04 06:36:37;;;;;;;14.97;13.57;;;20.10;99.90;;;;;;5047283;28;20193;-38
2021/07/04 06:39:04;;;;;;;14.50;13.13;;;20.00;99.90;;;;;;5037644;28;20464;-38
2021/07/04 06:41:29;;;;;;;14.90;13.57;;;20.00;99.90;;;;;;5048758;28;20213;-38
2021/07/04 06:43:55;;;;;;;14.07;12.60;;;20.00;99.90;;;;;;5047968;28;20490;-37
2021/07/04 06:46:21;;;;;;;13.23;12.13;;;19.90;99.90;;;;;;5048838;28;20186;-38
2021/07/04 06:48:47;;;;;;;13.70;12.47;;;19.90;99.90;;;;;;5048185;28;20675;-38
2021/07/04 06:51:12;;;;;;;14.77;13.40;;;19.90;99.90;;;;;;5048632;28;20197;-38
2021/07/04 06:53:38;;;;;;;14.40;12.87;;;19.90;99.90;;;;;;5037617;28;20520;-38
2021/07/04 06:56:04;;;;;;;13.77;12.43;;;19.80;99.90;;;;;;5048250;28;20656;-38
2021/07/04 06:58:30;;;;;;;13.70;12.40;;;19.80;99.90;;;;;;5046993;28;20483;-38
2021/07/04 07:00:56;;;;;;;13.93;12.63;;;19.80;99.90;;;;;;5048353;28;20424;-37
2021/07/04 07:03:22;;;;;;;14.30;12.97;;;19.90;99.90;;;;;;5047568;28;20659;-37
2021/07/04 07:05:47;;;;;;;15.10;13.80;;;20.00;99.90;;;;;;5048157;28;20244;-38
2021/07/04 07:08:13;;;;;;;14.60;13.23;;;20.10;99.90;;;;;;5041395;28;20194;-38
2021/07/04 07:10:39;;;;;;;14.57;13.17;;;20.30;99.90;;;;;;5045434;28;20189;-38
2021/07/04 07:13:05;;;;;;;15.00;13.60;;;20.40;99.90;;;;;;5045493;28;20230;-38
2021/07/04 07:15:31;;;;;;;15.10;13.63;;;20.60;99.90;;;;;;5047897;28;20412;-38
2021/07/04 07:17:57;;;;;;;15.90;13.53;;;20.90;99.90;;;;;;5048272;28;20185;-38
2021/07/04 07:20:24;;;;;;;13.73;12.40;;;21.20;99.90;;;;;;5046452;28;20471;-38
2021/07/04 07:22:50;;;;;;;13.03;11.80;;;21.40;99.90;;;;;;5044009;28;20273;-37
2021/07/04 07:25:17;;;;;;;12.90;11.70;;;21.70;99.90;;;;;;5044522;28;20416;-38
2021/07/04 07:27:42;;;;;;;14.10;12.80;;;22.00;99.90;;;;;;5046305;28;20441;-38
2021/07/04 07:30:10;;;;;;;13.87;12.40;;;22.20;99.90;;;;;;5046628;28;20697;-37
2021/07/04 07:32:36;;;;;;;14.27;12.87;;;22.30;99.90;;;;;;5048591;28;20243;-38
2021/07/04 07:35:07;;;;;;;12.90;11.70;;;22.40;99.90;;;;;;5049974;28;20611;-38
2021/07/04 07:37:33;;;;;;;12.10;11.03;;;22.60;99.90;;;;;;5066014;28;20572;-38
2021/07/04 07:39:59;;;;;;;12.47;10.97;;;22.70;99.90;;;;;;5031796;28;20467;-38
2021/07/04 07:42:25;;;;;;;13.80;12.60;;;22.80;99.90;;;;;;5048803;28;20918;-38
2021/07/04 07:44:51;;;;;;;13.83;12.13;;;23.00;99.90;;;;;;5048521;28;20186;-38
2021/07/04 07:47:16;;;;;;;13.13;11.83;;;23.00;99.90;;;;;;5048557;28;20645;-37
2021/07/04 07:49:42;;;;;;;11.40;10.20;;;23.00;99.90;;;;;;5047462;28;20595;-38
2021/07/04 07:52:09;;;;;;;10.33;9.47;;;23.10;99.90;;;;;;5047103;28;20213;-38
2021/07/04 07:54:35;;;;;;;12.00;10.90;;;23.20;99.90;;;;;;5049444;28;20430;-38
2021/07/04 07:57:02;;;;;;;11.43;9.70;;;23.30;99.90;;;;;;5058196;28;20514;-37
2021/07/04 07:59:32;;;;;;;11.90;10.80;;;23.30;99.90;;;;;;5058262;28;20478;-38
2021/07/04 08:01:58;;;;;;;11.47;10.43;;;23.30;99.90;;;;;;5047471;28;20782;-38
2021/07/04 08:04:24;;;;;;;11.40;10.30;;;23.40;99.90;;;;;;5046098;28;20808;-38
2021/07/04 08:06:50;;;;;;;11.53;10.40;;;23.30;99.90;;;;;;5046794;28;20416;-37
2021/07/04 08:09:16;;;;;;;11.10;10.07;;;23.20;99.90;;;;;;5036715;28;20983;-38
2021/07/04 08:11:42;;;;;;;11.13;10.07;;;23.20;99.90;;;;;;5043841;28;20438;-38
2021/07/04 08:14:08;;;;;;;11.17;10.20;;;23.20;99.90;;;;;;5046316;28;20268;-38
2021/07/04 08:16:34;;;;;;;10.47;9.50;;;23.10;99.90;;;;;;5045753;28;20452;-38
2021/07/04 08:18:59;;;;;;;9.53;8.63;;;23.10;99.90;;;;;;5046797;28;20224;-37
2021/07/04 08:21:28;;;;;;;10.30;9.30;;;23.00;99.90;;;;;;5045550;28;20196;-38
2021/07/04 08:23:54;;;;;;;10.90;9.80;;;22.90;99.90;;;;;;5040760;28;20188;-38
2021/07/04 08:26:20;;;;;;;10.60;9.60;;;22.90;99.90;;;;;;5042107;28;20412;-38
2021/07/04 08:28:45;;;;;;;11.53;10.43;;;22.80;99.90;;;;;;5046920;28;20432;-38
2021/07/04 08:31:11;;;;;;;10.47;9.57;;;22.80;99.90;;;;;;5046453;28;20182;-38
2021/07/04 08:33:37;;;;;;;10.00;9.20;;;22.80;99.90;;;;;;5063684;28;20285;-38
2021/07/04 08:36:03;;;;;;;11.13;10.13;;;22.90;99.90;;;;;;5067608;28;20185;-38
2021/07/04 08:38:28;;;;;;;10.90;9.90;;;23.10;99.90;;;;;;5059129;28;20218;-38
2021/07/04 08:40:54;;;;;;;10.20;9.20;;;23.10;99.90;;;;;;5040229;28;20190;-38
2021/07/04 08:43:30;;;;;;;11.90;10.80;;;23.20;99.90;;;;;;5046874;28;20284;-38
2021/07/04 08:45:56;;;;;;;9.33;8.53;;;23.20;99.90;;;;;;5050219;28;20559;-39
2021/07/04 08:48:22;;;;;;;10.00;9.00;;;23.20;99.90;;;;;;5046471;28;20507;-38
2021/07/04 08:50:48;;;;;;;9.90;8.90;;;23.10;99.90;;;;;;5050376;28;20416;-38
2021/07/04 08:53:14;;;;;;;9.27;8.47;;;23.10;99.90;;;;;;5044609;28;20553;-38
2021/07/04 08:55:43;;;;;;;8.87;8.17;;;23.10;99.90;;;;;;5044180;28;20599;-38
2021/07/04 08:58:09;;;;;;;8.13;7.43;;;23.20;99.90;;;;;;5048913;28;20178;-38
2021/07/04 09:00:35;;;;;;;9.47;8.53;;;23.20;99.90;;;;;;5047787;28;20428;-38
2021/07/04 09:03:00;;;;;;;9.10;8.13;;;23.30;99.90;;;;;;5049638;28;20425;-38
2021/07/04 09:05:40;;;;;;;8.93;8.20;;;23.40;99.90;;;;;;5061116;28;20230;-39
2021/07/04 09:08:20;;;;;;;9.23;8.33;;;23.50;99.90;;;;;;5068062;28;20220;-38
2021/07/04 09:11:12;;;;;;;9.60;8.60;;;23.80;99.90;;;;;;5044979;28;20435;-38
2021/07/04 09:13:39;;;;;;;8.80;8.10;;;23.90;99.90;;;;;;5051257;28;20456;-39
2021/07/04 09:16:10;;;;;;;8.10;7.40;;;23.70;99.90;;;;;;5052196;28;20420;-38
2021/07/04 09:18:38;;;;;;;7.83;7.23;;;23.60;99.90;;;;;;5052063;28;20463;-39
2021/07/04 09:21:22;;;;;;;8.20;7.50;;;23.50;99.90;;;;;;5052879;28;20420;-38
2021/07/04 09:23:48;;;;;;;9.63;8.93;;;23.40;99.90;;;;;;5046148;28;20428;-38
2021/07/04 09:26:43;;;;;;;9.67;8.23;;;23.30;99.90;;;;;;5050832;28;20518;-38
2021/07/04 09:29:10;;;;;;;9.00;8.20;;;23.30;99.90;;;;;;5045244;28;21183;-38
2021/07/04 09:31:38;;;;;;;7.33;6.80;;;23.30;99.90;;;;;;5051045;28;20491;-39
2021/07/04 09:34:12;;;;;;;7.90;7.30;;;23.40;99.90;;;;;;5050396;28;20477;-38
2021/07/04 09:36:40;;;;;;;8.50;7.70;;;23.40;99.90;;;;;;5050486;28;20909;-38
2021/07/04 09:39:17;;;;;;;8.63;7.90;;;23.40;99.90;;;;;;5048628;28;20482;-38
2021/07/04 09:42:09;;;;;;;8.67;7.97;;;23.40;99.90;;;;;;5050718;28;20424;-38
2021/07/04 09:44:36;;;;;;;10.77;8.10;;;23.30;99.90;;;;;;5051859;28;20430;-39
2021/07/04 09:47:19;;;;;;;9.80;8.90;;;23.20;99.90;;;;;;5069642;28;20423;-38
2021/07/04 09:49:47;;;;;;;8.87;8.13;;;23.20;99.90;;;;;;5069472;28;20778;-38
2021/07/04 09:52:21;;;;;;;8.47;7.77;;;23.10;99.90;;;;;;5070318;28;20445;-38
2021/07/04 09:54:59;;;;;;;10.70;9.60;;;23.00;99.90;;;;;;5055571;28;20447;-39
2021/07/04 09:57:25;;;;;;;11.37;10.43;;;23.00;99.90;;;;;;5049762;28;20502;-38
2021/07/04 10:00:17;;;;;;;10.20;9.30;;;23.00;99.90;;;;;;5051354;28;20983;-38
2021/07/04 10:03:02;;;;;;;9.10;8.40;;;23.00;99.90;;;;;;5051071;28;20458;-38
2021/07/04 10:05:28;;;;;;;9.57;8.77;;;22.90;99.90;;;;;;5050945;28;20935;-39
2021/07/04 10:07:54;;;;;;;10.47;9.47;;;22.90;99.90;;;;;;5050770;28;20452;-38
2021/07/04 10:10:20;;;;;;;9.43;8.53;;;23.10;99.90;;;;;;5038944;28;20232;-39
2021/07/04 10:12:45;;;;;;;7.87;7.27;;;23.30;99.90;;;;;;5048755;28;20259;-38
2021/07/04 10:15:11;;;;;;;8.97;8.07;;;23.60;99.90;;;;;;5051055;28;20355;-38
2021/07/04 10:17:37;;;;;;;7.90;7.10;;;23.80;99.90;;;;;;5037319;28;20255;-38
2021/07/04 10:20:04;;;;;;;9.07;8.27;;;24.00;99.90;;;;;;5050701;28;20822;-38
2021/07/04 10:22:37;;;;;;;8.80;8.10;;;23.90;99.90;;;;;;5050183;28;20507;-38
2021/07/04 10:25:07;;;;;;;8.87;8.07;;;23.70;99.90;;;;;;5042036;28;21031;-38
2021/07/04 10:27:37;;;;;;;8.90;8.20;;;23.60;99.90;;;;;;5050758;28;20765;-39
2021/07/04 10:30:05;;;;;;;8.93;8.13;;;23.50;99.90;;;;;;5050953;28;20454;-38
2021/07/04 10:32:30;;;;;;;10.10;9.07;;;23.40;99.90;;;;;;5050648;28;21476;-39
2021/07/04 10:35:06;;;;;;;8.30;7.50;;;23.30;99.90;;;;;;5050296;28;20424;-38
2021/07/04 10:37:35;;;;;;;8.87;8.10;;;23.20;99.90;;;;;;5049800;28;20197;-38
2021/07/04 10:40:18;;;;;;;10.93;9.83;;;23.20;99.90;;;;;;5044703;28;20566;-38
2021/07/04 10:42:45;;;;;;;9.50;8.60;;;23.10;99.90;;;;;;5048883;28;20431;-38
2021/07/04 10:45:31;;;;;;;8.47;7.70;;;23.00;99.90;;;;;;5056052;28;20510;-38
2021/07/04 10:48:30;;;;;;;8.10;7.40;;;22.90;99.90;;;;;;5048059;28;20761;-39
2021/07/04 10:51:10;;;;;;;8.43;7.83;;;22.80;99.90;;;;;;5051384;28;20486;-38
2021/07/04 10:53:52;;;;;;;8.10;7.40;;;22.70;99.90;;;;;;5047577;28;20760;-38
2021/07/04 10:56:33;;;;;;;7.70;7.07;;;22.70;99.90;;;;;;5038457;28;20438;-38
2021/07/04 10:59:21;;;;;;;8.50;7.70;;;22.60;99.90;;;;;;5041039;28;20491;-38
2021/07/04 11:01:56;;;;;;;7.97;7.23;;;22.60;99.90;;;;;;5036366;28;20434;-38
2021/07/04 11:04:30;;;;;;;8.90;8.03;;;22.60;99.90;;;;;;5046682;28;20416;-38
2021/07/04 11:06:57;;;;;;;8.33;7.60;;;22.60;99.90;;;;;;5043852;28;20404;-38
2021/07/04 11:09:23;;;;;;;8.80;8.03;;;22.50;99.90;;;;;;5047583;28;20462;-38
2021/07/04 11:11:50;;;;;;;9.43;8.53;;;22.50;99.90;;;;;;5038502;28;20462;-38
2021/07/04 11:14:16;;;;;;;9.10;8.20;;;22.40;99.90;;;;;;5046885;28;20463;-38
2021/07/04 11:17:06;;;;;;;9.97;9.07;;;22.40;99.90;;;;;;5047331;28;20428;-38
2021/07/04 11:19:31;;;;;;;9.10;8.30;;;22.30;99.90;;;;;;5047519;28;20922;-39
2021/07/04 11:21:57;;;;;;;8.27;7.60;;;22.30;99.90;;;;;;5058759;28;20513;-38
2021/07/04 11:24:28;;;;;;;9.33;8.53;;;22.20;99.90;;;;;;5044129;28;20201;-38
2021/07/04 11:27:23;;;;;;;9.77;8.87;;;22.10;99.90;;;;;;5043037;28;20193;-39
2021/07/04 11:30:26;;;;;;;9.20;8.40;;;22.00;99.90;;;;;;5046419;28;20463;-38
2021/07/04 11:33:32;;;;;;;10.60;9.60;;;21.90;99.90;;;;;;5045025;28;20477;-38
2021/07/04 11:35:59;;;;;;;10.60;9.60;;;21.80;99.90;;;;;;5046562;28;20435;-38
2021/07/04 11:38:27;;;;;;;11.23;10.00;;;21.60;99.90;;;;;;5047202;28;20463;-38
2021/07/04 11:40:54;;;;;;;11.63;10.63;;;21.40;99.90;;;;;;5038233;28;20474;-39
2021/07/04 11:43:23;;;;;;;12.30;11.20;;;21.30;99.90;;;;;;5045754;28;20421;-38
2021/07/04 11:45:58;;;;;;;11.67;10.73;;;21.20;99.90;;;;;;5052494;28;21020;-38
2021/07/04 11:48:49;;;;;;;12.30;11.20;;;21.10;99.90;;;;;;5037545;28;20443;-38
2021/07/04 11:51:55;;;;;;;11.50;10.50;;;21.00;99.90;;;;;;5043466;28;20462;-38
2021/07/04 11:54:26;;;;;;;12.20;10.97;;;21.00;99.90;;;;;;5042310;28;20435;-38
2021/07/04 11:57:29;;;;;;;12.33;11.17;;;20.90;99.90;;;;;;5040128;28;21024;-38
2021/07/04 11:59:57;;;;;;;11.50;10.50;;;20.90;99.90;;;;;;5047344;28;20491;-38
2021/07/04 12:02:23;;;;;;;10.57;9.57;;;20.90;99.90;;;;;;5047711;28;20424;-38
2021/07/04 12:04:49;;;;;;;9.13;8.33;;;20.90;99.90;;;;;;5045877;28;20629;-38
2021/07/04 12:07:17;;;;;;;10.33;9.30;;;20.90;99.90;;;;;;5049543;28;20769;-38
2021/07/04 12:09:51;;;;;;;10.40;9.50;;;20.90;99.90;;;;;;5041784;28;20205;-38
2021/07/04 12:12:30;;;;;;;10.00;9.00;;;20.90;99.90;;;;;;5035530;28;20419;-38
2021/07/04 12:15:14;;;;;;;9.60;8.70;;;20.90;99.90;;;;;;5046227;28;20451;-38
2021/07/04 12:17:48;;;;;;;10.37;9.27;;;20.90;99.90;;;;;;5031683;28;20467;-38
2021/07/04 12:20:23;;;;;;;9.97;9.07;;;20.90;99.90;;;;;;5046330;28;20475;-38
2021/07/04 12:22:56;;;;;;;10.70;9.70;;;21.00;99.90;;;;;;5064971;28;20423;-38
2021/07/04 12:25:39;;;;;;;11.70;10.70;;;20.90;99.90;;;;;;5053687;28;20977;-38
2021/07/04 12:28:10;;;;;;;11.93;10.73;;;20.90;99.90;;;;;;5038563;28;20417;-38
2021/07/04 12:30:39;;;;;;;12.20;10.90;;;20.80;99.90;;;;;;5043427;28;20826;-38
2021/07/04 12:33:20;;;;;;;11.40;10.40;;;20.80;99.90;;;;;;5044502;28;20432;-38
2021/07/04 12:35:54;;;;;;;11.30;10.30;;;20.80;99.90;;;;;;5045827;28;20644;-38
2021/07/04 12:38:21;;;;;;;10.07;9.07;;;20.80;99.90;;;;;;5045633;28;20438;-38